Time;durP1;ratioP1;P1;durP2;ratioP2;P2;SDS_P1;SDS_P2;PMS_P1;PMS_P2;Temp;Humidity;BMP_temperature;BMP_pressure;BME280_temperature;BME280_humidity;BME280_pressure;Samples;Min_cycle;Max_cycle;Signal;HPM_P1;HPM_P2
2021/11/03 00:00:55;;;;;;;3.93;3.53;;;9.10;99.90;;;;;;4959217;28;20555;-86
2021/11/03 00:03:27;;;;;;;3.70;3.40;;;8.90;99.90;;;;;;4957848;28;20530;-88
2021/11/03 00:05:55;;;;;;;5.40;3.53;;;8.90;99.90;;;;;;4957962;28;20948;-86
2021/11/03 00:08:25;;;;;;;3.20;2.60;;;8.90;99.90;;;;;;4959681;28;20723;-85
2021/11/03 00:10:54;;;;;;;3.37;3.00;;;8.60;99.90;;;;;;4960008;28;20482;-87
2021/11/03 00:13:24;;;;;;;3.50;3.20;;;8.70;99.90;;;;;;4978059;28;20459;-86
2021/11/03 00:15:53;;;;;;;3.53;3.23;;;8.70;99.90;;;;;;4957946;28;21163;-89
2021/11/03 00:18:21;;;;;;;4.10;3.60;;;8.70;99.90;;;;;;4976658;28;20499;-87
2021/11/03 00:20:48;;;;;;;3.83;3.43;;;8.80;99.90;;;;;;4956278;28;20457;-85
2021/11/03 00:23:15;;;;;;;6.33;4.40;;;8.80;99.90;;;;;;4953138;28;20459;-87
2021/11/03 00:28:32;;;;;;;3.47;3.17;;;8.60;99.90;;;;;;4981518;23;20515;-87
2021/11/03 00:31:09;;;;;;;3.13;2.80;;;8.60;99.90;;;;;;4991181;28;21053;-87
2021/11/03 00:33:37;;;;;;;4.13;3.43;;;8.60;99.90;;;;;;4986818;28;20474;-84
2021/11/03 00:36:04;;;;;;;3.83;2.90;;;8.60;99.90;;;;;;4971428;28;21387;-86
2021/11/03 00:38:31;;;;;;;3.40;2.97;;;8.60;99.90;;;;;;4974063;28;20483;-85
2021/11/03 00:41:00;;;;;;;4.87;3.30;;;8.50;99.90;;;;;;4956824;28;20459;-87
2021/11/03 00:43:29;;;;;;;3.87;2.67;;;8.40;99.90;;;;;;4970919;28;20455;-85
2021/11/03 00:45:59;;;;;;;4.57;3.23;;;8.40;99.90;;;;;;4951560;28;20461;-87
2021/11/03 00:48:32;;;;;;;3.87;3.40;;;8.60;99.90;;;;;;4943594;28;21191;-87
2021/11/03 00:51:52;;;;;;;3.90;3.50;;;8.50;99.90;;;;;;4946046;28;20452;-86
2021/11/03 00:58:06;;;;;;;6.37;3.13;;;8.50;99.90;;;;;;4891208;29;20481;-86
2021/11/03 01:00:34;;;;;;;3.70;3.40;;;8.50;99.90;;;;;;4945687;28;20470;-86
2021/11/03 01:03:17;;;;;;;3.60;3.03;;;8.60;99.90;;;;;;4943601;28;20485;-85
2021/11/03 01:05:48;;;;;;;4.30;3.70;;;8.60;99.90;;;;;;4960429;28;20461;-87
2021/11/03 01:08:32;;;;;;;3.40;2.87;;;8.40;99.90;;;;;;4954465;28;20485;-86
2021/11/03 01:11:00;;;;;;;7.10;4.70;;;8.30;99.90;;;;;;4949568;28;20452;-87
2021/11/03 01:14:09;;;;;;;5.13;3.80;;;8.20;99.90;;;;;;4974493;28;20461;-85
2021/11/03 01:17:39;;;;;;;5.20;4.37;;;8.20;99.90;;;;;;4972592;28;20485;-85
2021/11/03 01:20:12;;;;;;;5.53;4.13;;;8.20;99.90;;;;;;4943326;28;20524;-85
2021/11/03 01:23:01;;;;;;;4.53;4.10;;;8.30;99.90;;;;;;4954412;28;20443;-86
2021/11/03 01:25:40;;;;;;;4.47;3.60;;;8.20;99.90;;;;;;4955051;28;22197;-86
2021/11/03 01:28:10;;;;;;;4.70;4.13;;;8.10;99.90;;;;;;4976111;28;20502;-85
2021/11/03 01:30:59;;;;;;;3.63;3.33;;;8.10;99.90;;;;;;4959142;28;20452;-86
2021/11/03 01:33:31;;;;;;;4.23;3.83;;;8.20;99.90;;;;;;4966686;28;20543;-84
2021/11/03 01:36:05;;;;;;;4.17;3.77;;;8.20;99.90;;;;;;4939025;28;20913;-86
2021/11/03 01:38:46;;;;;;;5.43;4.03;;;8.30;99.90;;;;;;4937387;28;20454;-86
2021/11/03 01:41:21;;;;;;;3.83;3.53;;;8.40;99.90;;;;;;4952475;28;20497;-85
2021/11/03 01:44:17;;;;;;;4.40;4.00;;;8.40;99.90;;;;;;4949486;28;20504;-85
2021/11/03 01:46:51;;;;;;;4.50;4.10;;;8.30;99.90;;;;;;5002376;23;20510;-87
2021/11/03 01:49:22;;;;;;;4.87;4.37;;;8.30;99.90;;;;;;4984615;28;20978;-86
2021/11/03 01:53:05;;;;;;;5.00;3.33;;;8.20;99.90;;;;;;4968849;28;20473;-86
2021/11/03 01:55:33;;;;;;;3.70;3.40;;;8.40;99.90;;;;;;4962091;28;20464;-86
2021/11/03 01:58:07;;;;;;;5.57;3.53;;;8.40;99.90;;;;;;4982090;28;20479;-86
2021/11/03 02:00:41;;;;;;;3.70;3.20;;;8.40;99.90;;;;;;4981618;28;20445;-86
2021/11/03 02:03:16;;;;;;;4.17;3.77;;;8.40;99.90;;;;;;4968302;28;20463;-85
2021/11/03 02:05:57;;;;;;;3.87;3.37;;;8.30;99.90;;;;;;4969195;28;20504;-87
2021/11/03 02:08:25;;;;;;;3.57;3.27;;;8.20;99.90;;;;;;4967266;28;20494;-87
2021/11/03 02:10:55;;;;;;;3.37;3.10;;;8.10;99.90;;;;;;4965595;28;20472;-85
2021/11/03 02:13:24;;;;;;;4.20;3.80;;;8.10;99.90;;;;;;4965601;28;20560;-84
2021/11/03 02:16:35;;;;;;;4.20;3.80;;;8.10;99.90;;;;;;4988699;28;20443;-85
2021/11/03 02:19:24;;;;;;;3.90;3.60;;;8.10;99.90;;;;;;4984937;28;20516;-86
2021/11/03 02:21:57;;;;;;;4.70;4.20;;;8.00;99.90;;;;;;4987903;28;20468;-85
2021/11/03 02:24:30;;;;;;;3.90;3.40;;;7.80;99.90;;;;;;4972362;28;22017;-83
2021/11/03 02:26:59;;;;;;;5.00;3.30;;;8.00;99.90;;;;;;4985940;28;20477;-87
2021/11/03 02:33:00;;;;;;;5.10;4.30;;;8.10;99.90;;;;;;4939322;28;20536;-86
2021/11/03 02:35:31;;;;;;;5.80;5.20;;;8.10;99.90;;;;;;4952632;28;21040;-85
2021/11/03 02:37:58;;;;;;;4.80;4.27;;;8.00;99.90;;;;;;4971379;28;22146;-85
2021/11/03 02:40:40;;;;;;;7.13;4.53;;;8.20;99.90;;;;;;4956558;28;20477;-86
2021/11/03 02:43:20;;;;;;;6.60;4.13;;;8.10;99.90;;;;;;4956743;28;20465;-85
2021/11/03 02:45:59;;;;;;;4.30;3.90;;;8.00;99.90;;;;;;4955725;28;20469;-86
2021/11/03 02:48:36;;;;;;;5.27;4.20;;;8.00;99.90;;;;;;4973905;28;21593;-85
2021/11/03 02:51:18;;;;;;;5.00;4.60;;;7.90;99.90;;;;;;4974203;28;20465;-86
2021/11/03 02:54:14;;;;;;;4.90;4.13;;;7.70;99.90;;;;;;4956397;28;21991;-88
2021/11/03 02:56:48;;;;;;;4.00;3.70;;;7.60;99.90;;;;;;5114314;23;20463;-85
2021/11/03 02:59:17;;;;;;;4.20;3.80;;;7.70;99.90;;;;;;4954645;28;20460;-85
2021/11/03 03:01:47;;;;;;;4.73;4.23;;;7.60;99.90;;;;;;4952010;28;20476;-86
2021/11/03 03:04:22;;;;;;;4.70;4.20;;;7.60;99.90;;;;;;4952412;28;21518;-86
2021/11/03 03:06:50;;;;;;;5.13;4.60;;;7.70;99.90;;;;;;4948352;28;20485;-86
2021/11/03 03:09:18;;;;;;;4.40;4.00;;;7.70;99.90;;;;;;4936199;28;20463;-86
2021/11/03 03:11:53;;;;;;;4.40;4.00;;;7.60;99.90;;;;;;4935532;28;20473;-86
2021/11/03 03:14:22;;;;;;;5.00;4.50;;;7.70;99.90;;;;;;4935532;28;20956;-86
2021/11/03 03:16:50;;;;;;;6.40;4.83;;;7.80;99.90;;;;;;4938913;28;20475;-85
2021/11/03 03:19:18;;;;;;;4.90;4.40;;;8.20;99.90;;;;;;4958840;28;20473;-86
2021/11/03 03:21:55;;;;;;;6.80;5.40;;;8.20;99.90;;;;;;4937962;28;20473;-84
2021/11/03 03:24:36;;;;;;;5.93;5.33;;;8.10;99.90;;;;;;4955237;28;20477;-87
2021/11/03 03:27:21;;;;;;;6.10;5.17;;;7.90;99.90;;;;;;4952206;28;20486;-86
2021/11/03 03:29:48;;;;;;;6.20;5.07;;;8.00;99.90;;;;;;4933301;28;20469;-86
2021/11/03 03:32:29;;;;;;;6.80;5.97;;;8.00;99.90;;;;;;4938238;28;20604;-86
2021/11/03 03:34:56;;;;;;;7.53;6.17;;;8.10;99.90;;;;;;4956942;28;20483;-84
2021/11/03 03:37:32;;;;;;;6.03;5.17;;;7.90;99.90;;;;;;4955751;28;20483;-84
2021/11/03 03:39:59;;;;;;;6.77;5.33;;;8.00;99.90;;;;;;4954872;28;20469;-84
2021/11/03 03:42:44;;;;;;;8.03;5.87;;;8.00;99.90;;;;;;4954264;28;20557;-85
2021/11/03 03:45:11;;;;;;;7.57;6.47;;;8.00;99.90;;;;;;4933547;28;20464;-86
2021/11/03 03:47:38;;;;;;;7.60;6.00;;;7.90;99.90;;;;;;4934430;28;20892;-86
2021/11/03 03:50:09;;;;;;;8.73;6.47;;;7.90;99.90;;;;;;4939494;28;20563;-86
2021/11/03 03:52:42;;;;;;;8.57;6.07;;;7.90;99.90;;;;;;4938616;28;20583;-84
2021/11/03 03:55:10;;;;;;;8.80;6.60;;;8.00;99.90;;;;;;4959905;28;20762;-84
2021/11/03 03:57:37;;;;;;;8.00;6.80;;;8.10;99.90;;;;;;4959106;28;20501;-84
2021/11/03 04:00:16;;;;;;;8.20;6.73;;;8.00;99.90;;;;;;4958986;28;20467;-83
2021/11/03 04:02:44;;;;;;;9.30;6.90;;;8.00;99.90;;;;;;4941634;28;20476;-85
2021/11/03 04:05:11;;;;;;;9.90;6.20;;;7.90;99.90;;;;;;4943959;28;20456;-85
2021/11/03 04:07:37;;;;;;;8.30;6.20;;;8.00;99.90;;;;;;4957949;28;20498;-86
2021/11/03 04:10:06;;;;;;;8.70;7.10;;;7.90;99.90;;;;;;4941534;28;20477;-85
2021/11/03 04:12:33;;;;;;;6.70;5.57;;;7.90;99.90;;;;;;4940544;28;20487;-86
2021/11/03 04:15:01;;;;;;;8.63;6.97;;;7.90;99.90;;;;;;4942115;28;20491;-85
2021/11/03 04:17:27;;;;;;;9.23;6.43;;;7.80;99.90;;;;;;4955677;28;20499;-83
2021/11/03 04:19:54;;;;;;;8.03;7.17;;;8.00;99.90;;;;;;4941293;28;20451;-83
2021/11/03 04:22:21;;;;;;;8.00;6.07;;;8.00;99.90;;;;;;4956969;28;21002;-84
2021/11/03 04:24:47;;;;;;;7.40;6.43;;;7.80;99.90;;;;;;4941223;28;20473;-86
2021/11/03 04:27:17;;;;;;;7.77;6.00;;;7.80;99.90;;;;;;4940801;28;20472;-84
2021/11/03 04:29:50;;;;;;;8.93;6.57;;;7.70;99.90;;;;;;4939950;28;20570;-84
2021/11/03 04:32:19;;;;;;;9.97;6.37;;;8.00;99.90;;;;;;4939077;28;20495;-84
2021/11/03 04:34:46;;;;;;;9.27;6.47;;;8.00;99.90;;;;;;4940008;28;20455;-84
2021/11/03 04:37:12;;;;;;;10.33;6.93;;;7.90;99.90;;;;;;4981231;23;20565;-86
2021/11/03 04:39:39;;;;;;;8.40;6.97;;;8.00;99.90;;;;;;4974238;28;20462;-86
2021/11/03 04:42:07;;;;;;;9.40;7.20;;;8.20;99.90;;;;;;4954691;28;20580;-85
2021/11/03 04:44:34;;;;;;;9.37;7.33;;;8.30;99.90;;;;;;4955508;28;20467;-85
2021/11/03 04:47:01;;;;;;;8.90;6.67;;;8.30;99.90;;;;;;4958947;23;20511;-84
2021/11/03 04:49:28;;;;;;;10.23;7.23;;;8.30;99.90;;;;;;4940895;28;20624;-84
2021/11/03 04:51:55;;;;;;;9.23;7.13;;;8.10;99.90;;;;;;4925958;28;20472;-84
2021/11/03 04:54:22;;;;;;;10.40;7.17;;;8.00;99.90;;;;;;4939582;28;20542;-86
2021/11/03 04:56:51;;;;;;;12.90;9.40;;;8.10;99.90;;;;;;4250724;28;10000736;-85
2021/11/03 04:59:19;;;;;;;8.50;7.10;;;8.10;99.90;;;;;;4903551;28;20519;-85
2021/11/03 05:01:45;;;;;;;10.37;7.60;;;8.10;99.90;;;;;;4903875;28;21105;-85
2021/11/03 05:04:12;;;;;;;11.50;7.47;;;8.10;99.90;;;;;;4901325;28;20622;-86
2021/11/03 05:06:41;;;;;;;8.37;6.80;;;8.20;99.90;;;;;;4904596;28;21187;-86
2021/11/03 05:09:09;;;;;;;10.20;7.33;;;8.20;99.90;;;;;;4917540;28;20962;-85
2021/11/03 05:11:36;;;;;;;9.80;7.30;;;8.30;99.90;;;;;;4918534;28;20461;-85
2021/11/03 05:14:03;;;;;;;10.50;7.30;;;8.10;99.90;;;;;;4900824;28;21025;-86
2021/11/03 05:16:30;;;;;;;8.50;6.70;;;8.10;99.90;;;;;;4905819;28;20517;-86
2021/11/03 05:19:01;;;;;;;9.33;6.43;;;8.10;99.90;;;;;;4919100;28;20451;-84
2021/11/03 05:21:53;;;;;;;8.10;6.80;;;8.20;99.90;;;;;;4903049;28;21179;-84
2021/11/03 05:24:35;;;;;;;9.50;6.83;;;8.30;99.90;;;;;;4907542;28;21180;-85
2021/11/03 05:27:12;;;;;;;9.23;7.00;;;8.40;99.90;;;;;;4902907;28;20554;-85
2021/11/03 05:29:39;;;;;;;13.37;7.30;;;8.30;99.90;;;;;;4912298;28;21304;-84
2021/11/03 05:32:07;;;;;;;10.40;7.30;;;8.20;99.90;;;;;;4917274;28;20575;-86
2021/11/03 05:34:34;;;;;;;10.63;7.27;;;8.10;99.90;;;;;;4930979;28;20480;-84
2021/11/03 05:37:02;;;;;;;9.53;7.30;;;8.20;99.90;;;;;;4940877;28;20482;-85
2021/11/03 05:39:29;;;;;;;10.87;8.37;;;8.20;99.90;;;;;;4933825;28;22467;-86
2021/11/03 05:41:56;;;;;;;11.10;8.27;;;8.20;99.90;;;;;;4906892;28;20465;-85
2021/11/03 05:44:24;;;;;;;11.23;7.67;;;8.30;99.90;;;;;;4906760;28;20443;-85
2021/11/03 05:46:56;;;;;;;9.70;7.50;;;8.20;99.90;;;;;;4904989;28;20551;-85
2021/11/03 05:49:27;;;;;;;10.20;7.67;;;8.20;99.90;;;;;;4906600;28;20560;-87
2021/11/03 05:51:56;;;;;;;10.60;7.27;;;8.10;99.90;;;;;;4919748;28;20491;-84
2021/11/03 05:54:26;;;;;;;9.23;6.63;;;8.20;99.90;;;;;;4904793;28;20991;-85
2021/11/03 05:57:02;;;;;;;9.43;7.40;;;8.20;99.90;;;;;;4903625;28;20500;-86
2021/11/03 05:59:31;;;;;;;8.07;6.80;;;8.40;99.90;;;;;;4909429;28;21171;-86
2021/11/03 06:02:02;;;;;;;9.60;6.47;;;8.30;99.90;;;;;;4909953;28;20584;-85
2021/11/03 06:04:29;;;;;;;9.30;6.33;;;8.40;99.90;;;;;;4903764;28;21212;-86
2021/11/03 06:07:21;;;;;;;8.60;7.70;;;8.40;99.90;;;;;;5045385;23;20522;-85
2021/11/03 06:09:51;;;;;;;9.17;6.20;;;8.40;99.90;;;;;;4933248;28;20482;-86
2021/11/03 06:12:26;;;;;;;8.33;6.90;;;8.30;99.90;;;;;;4953495;28;20470;-86
2021/11/03 06:15:27;;;;;;;9.73;6.43;;;8.20;99.90;;;;;;4938062;28;20459;-87
2021/11/03 06:18:08;;;;;;;7.30;6.00;;;8.10;99.90;;;;;;4914269;28;20541;-85
2021/11/03 06:21:00;;;;;;;7.33;5.80;;;8.10;99.90;;;;;;4913281;28;20938;-86
2021/11/03 06:23:37;;;;;;;9.77;6.87;;;8.20;99.90;;;;;;4913687;28;20917;-85
2021/11/03 06:28:35;;;;;;;7.30;6.00;;;8.30;99.90;;;;;;5016723;23;20497;-86
2021/11/03 06:31:02;;;;;;;8.30;7.13;;;8.20;99.90;;;;;;4948503;28;20474;-85
2021/11/03 06:33:29;;;;;;;7.00;6.27;;;8.20;99.90;;;;;;4951937;28;20497;-85
2021/11/03 06:35:57;;;;;;;7.43;6.30;;;8.20;99.90;;;;;;4966830;28;20507;-87
2021/11/03 06:38:24;;;;;;;6.80;5.57;;;8.30;99.90;;;;;;4933628;28;21415;-85
2021/11/03 06:40:52;;;;;;;8.83;6.87;;;8.40;99.90;;;;;;4937130;28;20983;-85
2021/11/03 06:43:20;;;;;;;6.80;5.40;;;8.60;99.90;;;;;;4933970;28;20461;-87
2021/11/03 06:45:47;;;;;;;7.03;6.33;;;8.40;99.90;;;;;;4937421;28;20473;-86
2021/11/03 06:48:14;;;;;;;7.63;6.17;;;8.50;99.90;;;;;;5182822;23;20505;-85
2021/11/03 06:50:41;;;;;;;7.53;6.00;;;8.60;99.90;;;;;;4940244;28;20468;-87
2021/11/03 06:53:10;;;;;;;8.33;7.03;;;8.60;99.90;;;;;;4938212;28;20491;-85
2021/11/03 06:55:40;;;;;;;6.70;6.00;;;8.90;99.90;;;;;;4956643;28;20533;-85
2021/11/03 06:58:10;;;;;;;8.60;6.23;;;8.90;99.90;;;;;;4923628;28;20492;-87
2021/11/03 07:00:43;;;;;;;8.37;6.90;;;8.90;99.90;;;;;;4921661;28;21999;-87
2021/11/03 07:06:08;;;;;;;8.60;6.80;;;8.80;99.90;;;;;;5045716;22;20549;-86
2021/11/03 07:08:36;;;;;;;11.30;6.90;;;8.80;99.90;;;;;;4921700;28;20488;-86
2021/11/03 07:11:03;;;;;;;8.17;6.23;;;8.70;99.90;;;;;;4934629;28;20478;-85
2021/11/03 07:13:30;;;;;;;9.47;7.70;;;8.70;99.90;;;;;;4921816;28;20487;-85
2021/11/03 07:16:21;;;;;;;8.30;6.20;;;8.70;99.90;;;;;;4914678;28;20449;-88
2021/11/03 07:18:48;;;;;;;9.10;6.60;;;8.80;99.90;;;;;;4922036;28;20468;-86
2021/11/03 07:21:15;;;;;;;10.83;6.33;;;8.70;99.90;;;;;;4918804;28;20455;-87
2021/11/03 07:24:11;;;;;;;8.47;7.07;;;8.70;99.90;;;;;;4916573;28;20568;-87
2021/11/03 07:26:38;;;;;;;9.13;6.63;;;8.80;99.90;;;;;;4919767;28;21055;-87
2021/11/03 07:29:09;;;;;;;8.00;6.73;;;8.80;99.90;;;;;;4923405;28;20472;-87
2021/11/03 07:32:03;;;;;;;6.33;5.43;;;8.80;99.90;;;;;;4920771;28;20470;-87
2021/11/03 07:34:30;;;;;;;31.07;22.20;;;8.70;99.90;;;;;;4922806;28;21142;-87
2021/11/03 07:36:56;;;;;;;7.73;6.60;;;8.60;99.90;;;;;;5011036;23;20537;-86
2021/11/03 07:39:23;;;;;;;8.00;5.93;;;8.70;99.90;;;;;;4944758;28;22328;-86
2021/11/03 07:41:51;;;;;;;8.53;6.03;;;8.60;99.90;;;;;;4944901;28;20472;-88
2021/11/03 07:44:21;;;;;;;9.87;7.20;;;8.50;99.90;;;;;;4949085;28;20471;-87
2021/11/03 07:46:47;;;;;;;7.80;6.60;;;8.80;99.90;;;;;;4944924;28;20975;-86
2021/11/03 07:49:14;;;;;;;7.73;6.10;;;8.80;99.90;;;;;;4936396;28;21003;-86
2021/11/03 07:52:06;;;;;;;7.87;5.70;;;8.90;99.90;;;;;;4938583;28;20802;-88
2021/11/03 07:54:34;;;;;;;7.47;6.57;;;8.90;99.90;;;;;;4940876;28;20852;-87
2021/11/03 07:57:00;;;;;;;11.23;6.93;;;9.00;99.90;;;;;;4939752;28;21435;-88
2021/11/03 07:59:46;;;;;;;10.73;6.97;;;9.00;99.90;;;;;;4936053;28;20885;-86
2021/11/03 08:02:36;;;;;;;7.23;5.77;;;8.90;99.90;;;;;;4937101;28;20578;-87
2021/11/03 08:05:06;;;;;;;12.10;6.03;;;9.00;99.90;;;;;;4917693;28;20477;-87
2021/11/03 08:07:33;;;;;;;7.80;6.30;;;8.80;99.90;;;;;;5020015;23;21032;-88
2021/11/03 08:10:01;;;;;;;6.57;5.77;;;8.70;99.90;;;;;;4941786;28;20478;-86
2021/11/03 08:12:28;;;;;;;7.10;5.43;;;8.70;99.90;;;;;;4941178;28;20456;-87
2021/11/03 08:15:37;;;;;;;6.10;5.50;;;8.90;99.90;;;;;;4942808;28;20493;-86
2021/11/03 08:18:08;;;;;;;7.80;6.13;;;8.80;99.90;;;;;;4940825;28;21814;-87
2021/11/03 08:20:37;;;;;;;6.80;6.10;;;8.80;99.90;;;;;;4940418;28;22144;-87
2021/11/03 08:23:04;;;;;;;5.93;5.23;;;9.00;99.90;;;;;;4941359;28;20582;-87
2021/11/03 08:25:33;;;;;;;6.80;5.37;;;9.00;99.90;;;;;;4935853;28;20463;-86
2021/11/03 08:28:01;;;;;;;9.20;6.90;;;9.10;99.90;;;;;;4946815;23;20497;-87
2021/11/03 08:30:28;;;;;;;7.23;5.73;;;9.00;99.90;;;;;;4936697;28;20481;-86
2021/11/03 08:33:04;;;;;;;7.57;6.03;;;9.10;99.90;;;;;;4934166;28;20468;-86
2021/11/03 08:35:44;;;;;;;8.30;5.67;;;9.20;99.90;;;;;;4941268;28;20453;-85
2021/11/03 08:38:58;;;;;;;9.33;6.13;;;9.20;99.90;;;;;;4952758;28;20906;-86
2021/11/03 08:41:27;;;;;;;8.40;6.00;;;9.30;99.90;;;;;;4938527;28;20841;-86
2021/11/03 08:44:13;;;;;;;9.80;6.00;;;9.20;99.90;;;;;;4937272;28;20467;-87
2021/11/03 08:47:19;;;;;;;7.60;5.10;;;9.20;99.90;;;;;;4952992;23;21746;-87
2021/11/03 08:50:00;;;;;;;7.33;5.47;;;9.30;99.90;;;;;;4904805;28;20432;-87
2021/11/03 08:52:49;;;;;;;7.27;5.60;;;9.30;99.90;;;;;;4939192;28;20452;-87
2021/11/03 08:55:26;;;;;;;8.53;4.77;;;9.40;99.90;;;;;;4937695;28;20572;-85
2021/11/03 08:58:00;;;;;;;10.50;5.70;;;9.40;99.90;;;;;;4924235;28;20480;-89
2021/11/03 09:00:31;;;;;;;6.73;5.13;;;9.40;99.90;;;;;;4919959;28;20471;-87
2021/11/03 09:03:00;;;;;;;7.00;5.47;;;9.50;99.90;;;;;;4919327;28;20465;-87
2021/11/03 09:05:29;;;;;;;8.47;5.53;;;9.60;99.90;;;;;;4919413;28;20472;-87
2021/11/03 09:08:01;;;;;;;6.93;4.40;;;9.60;99.90;;;;;;4937425;23;21398;-87
2021/11/03 09:10:30;;;;;;;5.60;4.97;;;9.50;99.90;;;;;;4937913;28;20499;-85
2021/11/03 09:12:57;;;;;;;8.20;5.90;;;9.40;99.90;;;;;;4936904;28;20464;-86
2021/11/03 09:15:46;;;;;;;6.40;5.30;;;9.50;99.90;;;;;;4953291;28;20974;-86
2021/11/03 09:18:44;;;;;;;7.73;6.80;;;9.60;99.90;;;;;;4939239;28;22132;-86
2021/11/03 09:21:11;;;;;;;7.10;5.80;;;9.50;99.90;;;;;;4918292;28;20561;-85
2021/11/03 09:23:45;;;;;;;7.30;5.73;;;9.40;99.90;;;;;;4915784;28;20472;-86
2021/11/03 09:26:32;;;;;;;6.30;5.70;;;9.40;99.90;;;;;;4933661;28;20460;-86
2021/11/03 09:29:28;;;;;;;8.73;5.87;;;9.50;99.90;;;;;;4921018;28;20541;-88
2021/11/03 09:31:55;;;;;;;9.03;5.33;;;9.50;99.90;;;;;;4916019;28;20479;-84
2021/11/03 09:35:03;;;;;;;8.23;5.93;;;9.50;99.90;;;;;;4934271;28;20480;-86
2021/11/03 09:38:24;;;;;;;7.17;5.70;;;9.70;99.90;;;;;;4843150;29;21029;-85
2021/11/03 09:41:51;;;;;;;7.30;5.70;;;9.70;99.90;;;;;;4868200;29;20934;-87
2021/11/03 09:44:36;;;;;;;9.43;6.13;;;9.70;99.90;;;;;;4851726;29;21069;-84
2021/11/03 09:47:15;;;;;;;8.10;6.00;;;9.80;99.90;;;;;;4855607;29;21963;-87
2021/11/03 09:49:47;;;;;;;5.70;5.10;;;9.90;99.90;;;;;;4852911;29;20563;-86
2021/11/03 09:52:51;;;;;;;7.50;5.20;;;9.90;99.90;;;;;;4846266;29;20828;-87
2021/11/03 09:55:21;;;;;;;5.93;5.33;;;9.80;99.90;;;;;;4849978;29;20503;-84
2021/11/03 09:57:56;;;;;;;7.00;6.30;;;9.80;99.90;;;;;;4853222;29;21380;-87
2021/11/03 10:00:45;;;;;;;8.37;6.43;;;9.90;99.90;;;;;;4855930;29;20460;-87
2021/11/03 10:03:29;;;;;;;8.10;5.97;;;9.90;99.90;;;;;;4840361;29;20997;-85
2021/11/03 10:06:26;;;;;;;8.40;6.30;;;9.80;99.90;;;;;;4872435;29;20766;-86
2021/11/03 10:08:54;;;;;;;6.20;5.50;;;10.00;99.90;;;;;;4911314;28;20469;-86
2021/11/03 10:11:40;;;;;;;7.43;6.00;;;10.10;99.90;;;;;;4917829;28;20982;-86
2021/11/03 10:14:08;;;;;;;9.20;5.83;;;10.10;99.90;;;;;;4915826;28;20489;-87
2021/11/03 10:16:42;;;;;;;8.07;5.97;;;10.20;99.90;;;;;;4931627;22;20494;-86
2021/11/03 10:19:09;;;;;;;6.80;6.07;;;10.40;99.90;;;;;;4974107;28;20828;-85
2021/11/03 10:21:53;;;;;;;7.60;6.57;;;10.20;99.90;;;;;;4954805;28;20508;-86
2021/11/03 10:24:22;;;;;;;7.20;5.97;;;10.30;99.90;;;;;;4972009;28;22988;-85
2021/11/03 10:26:54;;;;;;;9.40;5.63;;;10.40;99.90;;;;;;4955098;28;20463;-85
2021/11/03 10:29:50;;;;;;;8.67;6.47;;;10.20;99.90;;;;;;4955637;28;21322;-87
2021/11/03 10:32:38;;;;;;;7.03;6.17;;;10.10;99.90;;;;;;4956264;28;20450;-87
2021/11/03 10:35:26;;;;;;;6.77;5.70;;;9.90;99.90;;;;;;4974708;28;20518;-84
2021/11/03 10:38:07;;;;;;;8.00;6.20;;;10.30;99.90;;;;;;4972178;28;20481;-87
2021/11/03 10:40:56;;;;;;;6.50;5.83;;;10.40;99.90;;;;;;4974217;28;20466;-86
2021/11/03 10:43:29;;;;;;;6.43;5.70;;;10.20;99.90;;;;;;4951867;28;20941;-86
2021/11/03 10:46:04;;;;;;;7.50;5.77;;;10.10;99.90;;;;;;4970948;28;20484;-87
2021/11/03 10:48:32;;;;;;;5.20;4.70;;;10.20;99.90;;;;;;4957082;28;20470;-86
2021/11/03 10:51:17;;;;;;;7.40;5.97;;;10.30;99.90;;;;;;4958661;28;20816;-85
2021/11/03 10:53:53;;;;;;;6.80;6.20;;;10.30;99.90;;;;;;4971070;28;20448;-85
2021/11/03 10:56:25;;;;;;;9.47;5.93;;;10.20;99.90;;;;;;4975202;28;20442;-87
2021/11/03 10:59:04;;;;;;;6.27;5.60;;;10.00;99.90;;;;;;4973244;28;20454;-84
2021/11/03 11:01:45;;;;;;;10.37;8.27;;;10.00;99.90;;;;;;4955561;28;20461;-85
2021/11/03 11:04:43;;;;;;;6.87;5.30;;;9.90;99.90;;;;;;4955718;28;20463;-87
2021/11/03 11:07:28;;;;;;;7.70;6.30;;;10.10;99.90;;;;;;4976466;28;23030;-87
2021/11/03 11:10:02;;;;;;;8.73;7.00;;;10.10;99.90;;;;;;4952332;28;20953;-85
2021/11/03 11:12:40;;;;;;;9.40;7.47;;;10.10;99.90;;;;;;4955184;28;20481;-85
2021/11/03 11:15:27;;;;;;;7.63;6.20;;;10.20;99.90;;;;;;4971244;28;20914;-85
2021/11/03 11:18:03;;;;;;;6.30;5.70;;;10.30;99.90;;;;;;4967634;28;20606;-86
2021/11/03 11:20:52;;;;;;;7.27;6.47;;;10.00;99.90;;;;;;4979165;28;20473;-86
2021/11/03 11:23:35;;;;;;;9.07;6.80;;;9.90;99.90;;;;;;4977159;28;21170;-84
2021/11/03 11:26:24;;;;;;;9.23;7.13;;;10.00;99.90;;;;;;4963248;28;20470;-87
2021/11/03 11:29:12;;;;;;;7.80;6.77;;;10.10;99.90;;;;;;4957432;28;20468;-87
2021/11/03 11:32:24;;;;;;;6.63;5.93;;;10.10;99.90;;;;;;4895999;29;20459;-84
2021/11/03 11:35:10;;;;;;;8.60;5.60;;;10.10;99.90;;;;;;4878076;29;20485;-85
2021/11/03 11:37:55;;;;;;;6.87;5.73;;;10.00;99.90;;;;;;4899835;29;20496;-85
2021/11/03 11:40:37;;;;;;;6.53;5.50;;;10.00;99.90;;;;;;4897928;29;20448;-89
2021/11/03 11:43:38;;;;;;;7.70;5.67;;;9.90;99.90;;;;;;4915575;29;20465;-87
2021/11/03 11:46:18;;;;;;;8.97;6.00;;;10.20;99.90;;;;;;4901189;29;20460;-87
2021/11/03 11:48:59;;;;;;;7.67;5.97;;;10.30;99.90;;;;;;4891972;29;20472;-87
2021/11/03 11:51:43;;;;;;;9.07;5.50;;;10.20;99.90;;;;;;4884240;29;20557;-87
2021/11/03 11:54:40;;;;;;;8.43;6.47;;;10.20;99.90;;;;;;4900665;29;20585;-85
2021/11/03 11:57:11;;;;;;;6.13;5.13;;;10.30;99.90;;;;;;4893799;29;20521;-85
2021/11/03 12:00:08;;;;;;;7.63;6.90;;;10.60;99.90;;;;;;4882545;29;20459;-87
2021/11/03 12:02:54;;;;;;;7.10;5.37;;;10.50;99.90;;;;;;4916517;28;21437;-87
2021/11/03 12:05:47;;;;;;;6.87;5.37;;;10.40;99.90;;;;;;4967167;28;20468;-85
2021/11/03 12:11:27;;;;;;;6.27;5.53;;;10.50;99.90;;;;;;4983055;28;20505;-87
2021/11/03 12:13:58;;;;;;;5.87;4.60;;;10.40;99.90;;;;;;4979181;28;20458;-88
2021/11/03 12:16:53;;;;;;;6.70;5.37;;;10.60;99.90;;;;;;4984880;28;20451;-85
2021/11/03 12:19:36;;;;;;;9.10;5.00;;;10.60;99.90;;;;;;4966846;28;20760;-87
2021/11/03 12:22:16;;;;;;;9.40;5.83;;;10.40;99.90;;;;;;4985481;28;20463;-85
2021/11/03 12:24:51;;;;;;;6.57;5.07;;;10.50;99.90;;;;;;4970141;28;20525;-86
2021/11/03 12:27:24;;;;;;;5.70;5.10;;;10.60;99.90;;;;;;4984777;28;20561;-86
2021/11/03 12:30:20;;;;;;;6.63;4.70;;;10.70;99.90;;;;;;4966077;28;20460;-87
2021/11/03 12:32:48;;;;;;;5.53;4.10;;;10.50;99.90;;;;;;4981980;28;20483;-87
2021/11/03 12:35:20;;;;;;;7.80;4.23;;;10.50;99.90;;;;;;4983212;28;21924;-89
2021/11/03 12:38:00;;;;;;;4.40;4.00;;;10.70;99.90;;;;;;4969054;28;20482;-87
2021/11/03 12:40:43;;;;;;;4.30;3.90;;;10.70;99.90;;;;;;4964858;28;20473;-85
2021/11/03 12:43:27;;;;;;;4.60;3.80;;;10.50;99.90;;;;;;4987360;28;20458;-86
2021/11/03 12:46:20;;;;;;;3.70;3.30;;;10.40;99.90;;;;;;4967415;28;20454;-85
2021/11/03 12:49:01;;;;;;;2.70;2.50;;;10.50;99.90;;;;;;4977852;28;20470;-86
2021/11/03 12:51:37;;;;;;;3.37;2.30;;;10.60;99.90;;;;;;4964555;28;20489;-85
2021/11/03 12:54:15;;;;;;;2.60;2.20;;;10.80;99.90;;;;;;4965891;28;20439;-86
2021/11/03 12:57:02;;;;;;;2.73;2.40;;;10.80;99.90;;;;;;4959793;28;20474;-89
2021/11/03 12:59:34;;;;;;;2.40;2.20;;;10.60;99.90;;;;;;4967177;28;21597;-85
2021/11/03 13:02:13;;;;;;;1.73;1.63;;;10.40;99.90;;;;;;4985637;28;20459;-88
2021/11/03 13:04:44;;;;;;;1.60;1.50;;;10.40;99.90;;;;;;4966679;28;20466;-87
2021/11/03 13:07:21;;;;;;;1.77;1.67;;;10.40;99.90;;;;;;4967718;28;20481;-87
2021/11/03 13:10:04;;;;;;;1.87;1.50;;;10.60;99.90;;;;;;4966042;28;20466;-87
2021/11/03 13:12:37;;;;;;;26.37;21.67;;;10.50;99.90;;;;;;4965882;28;21068;-87
2021/11/03 13:15:18;;;;;;;1.70;1.60;;;10.50;99.90;;;;;;4949098;28;20494;-87
2021/11/03 13:17:49;;;;;;;1.87;1.40;;;10.50;99.90;;;;;;4967669;28;20486;-87
2021/11/03 13:20:23;;;;;;;2.13;1.73;;;10.40;99.90;;;;;;4965642;28;20944;-86
2021/11/03 13:22:54;;;;;;;1.20;1.10;;;10.60;99.90;;;;;;4987134;28;20459;-86
2021/11/03 13:25:26;;;;;;;1.30;1.17;;;10.70;99.90;;;;;;4970860;28;22028;-86
2021/11/03 13:27:53;;;;;;;1.53;1.10;;;10.60;99.90;;;;;;4967728;28;20485;-86
2021/11/03 13:30:31;;;;;;;1.57;1.47;;;10.80;99.90;;;;;;4981839;28;20491;-86
2021/11/03 13:33:02;;;;;;;1.77;1.67;;;10.90;99.90;;;;;;4963158;28;20956;-85
2021/11/03 13:35:36;;;;;;;2.77;1.40;;;10.80;99.90;;;;;;4982285;28;21059;-86
2021/11/03 13:38:33;;;;;;;1.60;1.37;;;10.90;99.90;;;;;;4970007;28;20475;-86
2021/11/03 13:41:02;;;;;;;1.83;1.63;;;10.70;99.90;;;;;;4965938;28;21027;-85
2021/11/03 13:43:30;;;;;;;2.30;2.10;;;10.80;99.90;;;;;;4966961;28;20450;-87
2021/11/03 13:46:26;;;;;;;2.77;1.73;;;10.80;99.90;;;;;;4982819;28;20504;-86
2021/11/03 13:49:03;;;;;;;2.13;1.60;;;10.70;99.90;;;;;;4983310;28;20458;-86
2021/11/03 13:51:39;;;;;;;3.30;2.10;;;10.90;99.90;;;;;;4964256;28;21703;-87
2021/11/03 13:54:49;;;;;;;1.50;1.40;;;10.80;99.90;;;;;;4982994;28;20458;-86
2021/11/03 13:57:43;;;;;;;1.63;1.03;;;10.90;99.90;;;;;;4954385;28;20486;-84
2021/11/03 14:00:23;;;;;;;1.20;1.10;;;10.80;99.90;;;;;;4982770;28;21024;-86